METAR Data
IDs: Format: Raw Decoded Include TAF

Data at: 0144 UTC 20 Jan 2022

KMLI 200052Z 30013G25KT 10SM CLR M13/M19 A3043 RMK AO2 PK WND 32026/2354 SLP317 T11331189 $